»·PEaware :: SWA2258 KLAS-KSNA

SWA2258 :: KLAS-KSNA

FLIGHT INFORMATION

Flight Status: Arrived
Operator:
Southwest Airlines
More flights by this operator :: More flights under this callsign
Pilot: Joshua T. (23864)
Aircraft: BOEING 737-600
(B736)
More flights by this aircraft type
Origin: KLAS Harry Reid Intl
United States
Destination: KSNA John Wayne-Orange Co
United States
More flights between these airports :: More routes between these airports
Route: RADYR2 SLVRR FEYLA DSNEE5
File this flight plan on PilotEdge
Remarks:
Altitude:
(Current/Filed)
28,000ft
Speed:
(Current/Filed)
420kts
Departed: 22-Nov-23 04:37 PM
Arrived: 22-Nov-23 05:17 PM
Distance/Time
Traveled:
196nm/0:40
Distance/Time
To Go:
Arrived

Flight Plot

Page will automatically refresh every two minutes.

Flight plan parsing failed; only flown route is shown


Map Options




Map Legend


Flown Route
Filed Route
Departure Airport
Arrival Airport
Navaid (VOR, NDB)
Fix

Horizontal Profiles

Position Reports

Time Latitude Longitude Heading Altitude Ground
Speed
22-Nov-23 16:15 36.079567 -115.146708 26 2124ft 0kts
22-Nov-23 16:16 36.079567 -115.146708 26 2124ft 0kts
22-Nov-23 16:17 36.079567 -115.146708 26 2124ft 0kts
22-Nov-23 16:18 36.079567 -115.146708 26 2124ft 0kts
22-Nov-23 16:19 36.079567 -115.146708 26 2124ft 0kts
22-Nov-23 16:20 36.079567 -115.146708 26 2124ft 0kts
22-Nov-23 16:21 36.079567 -115.146708 26 2124ft 0kts
22-Nov-23 16:22 36.079567 -115.146708 26 2124ft 0kts
22-Nov-23 16:23 36.079567 -115.146708 26 2124ft 0kts
22-Nov-23 16:24 36.079567 -115.146708 26 2124ft 0kts
22-Nov-23 16:25 36.079490 -115.146755 26 2124ft 2kts
22-Nov-23 16:26 36.079282 -115.146879 25 2128ft 0kts
22-Nov-23 16:27 36.079282 -115.146879 25 2128ft 0kts
22-Nov-23 16:28 36.079282 -115.146879 25 2128ft 0kts
22-Nov-23 16:29 36.079297 -115.146849 69 2127ft 0kts
22-Nov-23 16:30 36.079080 -115.146757 181 2126ft 0kts
22-Nov-23 16:31 36.078131 -115.147078 172 2128ft 13kts
22-Nov-23 16:32 36.077530 -115.137961 89 2095ft 31kts
22-Nov-23 16:33 36.077544 -115.126675 90 2042ft 35kts
22-Nov-23 16:34 36.077436 -115.121477 124 2026ft 0kts
22-Nov-23 16:35 36.076431 -115.121426 247 2029ft 5kts
22-Nov-23 16:36 36.076398 -115.136010 269 2092ft 148kts
22-Nov-23 16:37 36.075956 -115.204262 266 4344ft 226kts
22-Nov-23 16:38 36.048591 -115.278292 206 5552ft 262kts
22-Nov-23 16:39 35.975124 -115.298585 191 7724ft 280kts
22-Nov-23 16:40 35.896627 -115.317352 191 10657ft 298kts
22-Nov-23 16:41 35.811747 -115.338694 192 13211ft 317kts
22-Nov-23 16:42 35.725388 -115.359411 192 15593ft 327kts
22-Nov-23 16:43 35.631718 -115.381582 193 17884ft 346kts
22-Nov-23 16:44 35.558337 -115.451086 234 20195ft 342kts
22-Nov-23 16:45 35.495261 -115.542045 230 22454ft 355kts
22-Nov-23 16:46 35.427368 -115.633257 231 24360ft 371kts
22-Nov-23 16:47 35.356686 -115.727550 231 26070ft 380kts
22-Nov-23 16:48 35.284288 -115.825158 231 27538ft 391kts
22-Nov-23 16:49 35.208850 -115.924922 231 28124ft 408kts
22-Nov-23 16:50 35.129501 -116.025052 230 28201ft 410kts
22-Nov-23 16:51 35.049263 -116.124974 231 28190ft 413kts
22-Nov-23 16:52 34.969048 -116.225577 231 28143ft 416kts
22-Nov-23 16:53 34.888443 -116.326862 230 28200ft 417kts
22-Nov-23 16:54 34.807036 -116.428117 232 27993ft 416kts
22-Nov-23 16:55 34.727313 -116.531322 229 25647ft 412kts
22-Nov-23 16:56 34.646261 -116.623708 220 24024ft 403kts
22-Nov-23 16:57 34.558495 -116.706143 221 21937ft 392kts
22-Nov-23 16:58 34.476138 -116.789798 225 20162ft 376kts
22-Nov-23 16:59 34.406874 -116.872373 225 18173ft 378kts
22-Nov-23 17:00 34.332019 -116.959361 225 16248ft 369kts
22-Nov-23 17:01 34.257524 -117.043550 220 14213ft 367kts
22-Nov-23 17:02 34.171096 -117.100647 215 13352ft 325kts
22-Nov-23 17:03 34.088493 -117.148319 202 12143ft 334kts
22-Nov-23 17:04 34.003473 -117.192346 205 12093ft 333kts
22-Nov-23 17:05 33.942742 -117.270432 233 10788ft 322kts
22-Nov-23 17:06 33.887112 -117.350094 230 9625ft 298kts
22-Nov-23 17:07 33.834480 -117.424044 230 8376ft 283kts
22-Nov-23 17:08 33.799913 -117.501576 252 7953ft 250kts
22-Nov-23 17:09 33.815085 -117.578279 300 6873ft 250kts
22-Nov-23 17:10 33.855602 -117.647229 302 5981ft 255kts
22-Nov-23 17:11 33.846562 -117.723759 223 4477ft 253kts
22-Nov-23 17:12 33.798492 -117.777741 230 3121ft 211kts
22-Nov-23 17:13 33.759292 -117.815928 208 1777ft 149kts
22-Nov-23 17:14 33.728600 -117.835660 207 1082ft 129kts
22-Nov-23 17:15 33.696378 -117.855743 208 472ft 133kts
22-Nov-23 17:16 33.670527 -117.872092 200 61ft 36kts
22-Nov-23 17:17 33.670369 -117.869728 40 58ft 16kts
22-Nov-23 17:18 33.674234 -117.866419 28 60ft 19kts
22-Nov-23 17:19 33.680060 -117.862697 41 47ft 16kts
22-Nov-23 17:20 33.680048 -117.861803 105 48ft 0kts
22-Nov-23 17:21 33.680048 -117.861803 105 48ft 0kts
22-Nov-23 17:22 33.680048 -117.861803 105 48ft 0kts
22-Nov-23 17:23 33.680048 -117.861803 105 50ft 0kts
22-Nov-23 17:24 33.680048 -117.861803 105 50ft 0kts
22-Nov-23 17:25 33.680048 -117.861803 105 50ft 0kts
22-Nov-23 17:26 33.680048 -117.861803 105 50ft 0kts
22-Nov-23 17:27 33.680048 -117.861803 105 50ft 0kts
22-Nov-23 17:28 33.680048 -117.861803 105 50ft 0kts
22-Nov-23 17:29 33.680048 -117.861803 105 50ft 0kts
22-Nov-23 17:30 33.680048 -117.861803 105 50ft 0kts

Navigation Log

Ident Type
Flight plan parsing failed, navigation log unavailable